Terminal Aerodrome Forecast
Issued by NWS

Home | Current Version | Previous Version | Text Only | Print | Product List | Glossary On
Versions: 1 2 3 4 5 6 7 8 9 10 11 12 13 14 15 16 17 18 19 20 21
000
FTUS41 KGYX 020821 AAA
TAFMHT
TAF AMD
KMHT 020821Z 0208/0306 VRB03KT 2SM -DZ BR BKN005 OVC015
     FM021500 07005KT 2SM -RA BR OVC007
     FM030100 36003KT P6SM SCT007 BKN025=

USA.gov is the U.S. government's official web portal to all federal, state and local government web resources and services.